createdAt,value
2022-11-25T00:00:16.217Z,68.84
2022-11-25T00:01:21.675Z,68.57
2022-11-25T00:02:23.356Z,68.35
2022-11-25T00:03:25.000Z,68.05
2022-11-25T00:04:29.235Z,67.98
2022-11-25T00:05:30.715Z,69.15
2022-11-25T00:06:32.829Z,69.31
2022-11-25T00:07:35.600Z,69.35
2022-11-25T00:08:40.406Z,69.23
2022-11-25T00:09:41.866Z,69.20
2022-11-25T00:10:43.418Z,69.22
2022-11-25T00:11:44.866Z,69.39
2022-11-25T00:12:47.331Z,69.69
2022-11-25T00:13:48.946Z,69.75
2022-11-25T00:14:51.308Z,70.01
2022-11-25T00:15:52.778Z,70.20
2022-11-25T00:16:54.343Z,70.16
2022-11-25T00:17:55.858Z,70.35
2022-11-25T00:18:59.338Z,70.44
2022-11-25T00:20:01.761Z,70.08
2022-11-25T00:21:07.278Z,70.73
2022-11-25T00:22:08.713Z,70.76
2022-11-25T00:23:16.362Z,70.60
2022-11-25T00:24:17.879Z,70.25
2022-11-25T00:25:19.406Z,70.48
2022-11-25T00:26:24.722Z,70.14
2022-11-25T00:27:26.198Z,69.96
2022-11-25T00:28:27.798Z,69.57
2022-11-25T00:29:31.630Z,69.68
2022-11-25T00:30:33.427Z,69.38
2022-11-25T00:31:35.586Z,69.10
2022-11-25T00:32:37.150Z,69.08
2022-11-25T00:33:38.631Z,68.84
2022-11-25T00:34:42.343Z,69.06
2022-11-25T00:35:46.856Z,68.64
2022-11-25T00:36:55.355Z,68.27
2022-11-25T00:37:57.350Z,68.00
2022-11-25T00:39:01.875Z,67.88
2022-11-25T00:40:04.581Z,67.81
2022-11-25T00:43:19.129Z,67.83
2022-11-25T00:44:36.241Z,67.59
2022-11-25T00:45:38.378Z,67.27
2022-11-25T00:46:40.901Z,67.08
2022-11-25T00:47:44.303Z,67.39
2022-11-25T00:48:57.942Z,67.25
2022-11-25T00:50:01.878Z,66.83
2022-11-25T00:51:03.437Z,67.03
2022-11-25T00:52:05.028Z,67.23
2022-11-25T00:53:09.357Z,67.24
2022-11-25T00:54:10.851Z,67.06
2022-11-25T00:55:14.389Z,67.13
2022-11-25T00:56:18.526Z,66.95
2022-11-25T00:57:20.828Z,67.08
2022-11-25T00:58:22.373Z,67.08
2022-11-25T00:59:29.404Z,66.84
2022-11-25T01:00:33.654Z,67.05
2022-11-25T01:01:35.700Z,67.27
2022-11-25T01:02:37.307Z,67.40
2022-11-25T01:03:39.046Z,67.54
2022-11-25T01:04:53.568Z,67.67
2022-11-25T01:05:55.061Z,67.59
2022-11-25T01:07:02.584Z,67.67
2022-11-25T01:08:04.398Z,67.79
2022-11-25T01:09:08.709Z,68.26
2022-11-25T01:10:10.213Z,68.44
2022-11-25T01:11:14.133Z,68.41
2022-11-25T01:12:15.780Z,69.00
2022-11-25T01:13:17.227Z,69.04
2022-11-25T01:14:19.018Z,69.13
2022-11-25T01:15:37.121Z,69.50
2022-11-25T01:16:38.676Z,69.21
2022-11-25T01:17:44.649Z,69.45
2022-11-25T01:18:48.657Z,69.54
2022-11-25T01:20:05.582Z,69.66
2022-11-25T01:21:16.162Z,69.53
2022-11-25T01:22:20.099Z,69.51
2022-11-25T01:23:21.610Z,69.21
2022-11-25T01:24:32.826Z,69.55
2022-11-25T01:25:40.494Z,69.82
2022-11-25T01:26:42.030Z,69.31
2022-11-25T01:27:43.532Z,69.44
2022-11-25T01:28:45.053Z,69.15
2022-11-25T01:30:01.889Z,69.42
2022-11-25T01:31:27.603Z,69.28
2022-11-25T01:32:29.093Z,69.16
2022-11-25T01:33:34.565Z,69.34
2022-11-25T01:34:37.547Z,69.68
2022-11-25T01:35:41.834Z,69.57
2022-11-25T01:36:43.289Z,69.43
2022-11-25T01:37:44.803Z,69.45
2022-11-25T01:40:04.974Z,69.43
2022-11-25T01:41:10.494Z,69.23
2022-11-25T01:42:14.610Z,69.10
2022-11-25T01:43:16.182Z,69.19
2022-11-25T01:44:23.340Z,68.95
2022-11-25T01:45:34.814Z,69.06
2022-11-25T01:46:43.117Z,69.08
2022-11-25T01:47:54.766Z,69.01
2022-11-25T01:48:57.058Z,68.92
2022-11-25T01:50:05.278Z,69.08
2022-11-25T01:51:11.882Z,69.26
2022-11-25T01:52:29.706Z,69.18
2022-11-25T01:53:33.280Z,68.97
2022-11-25T01:55:00.289Z,69.15
2022-11-25T01:56:03.128Z,68.74
2022-11-25T01:57:22.987Z,69.00
2022-11-25T01:58:27.321Z,68.88
2022-11-25T01:59:35.162Z,68.74
2022-11-25T02:00:37.708Z,68.83
2022-11-25T02:01:41.789Z,69.19
2022-11-25T02:02:43.409Z,68.94
2022-11-25T02:03:48.090Z,69.09
2022-11-25T02:04:52.374Z,68.99
2022-11-25T02:06:14.677Z,68.83
2022-11-25T02:07:19.925Z,69.00
2022-11-25T02:08:22.888Z,68.74
2022-11-25T02:09:25.446Z,69.01
2022-11-25T02:10:29.543Z,68.64
2022-11-25T02:11:31.058Z,68.97
2022-11-25T02:12:34.345Z,69.00
2022-11-25T02:13:38.913Z,69.54
2022-11-25T02:14:40.557Z,69.25
2022-11-25T02:15:42.026Z,69.37
2022-11-25T02:16:43.642Z,69.45
2022-11-25T02:17:45.156Z,69.22
2022-11-25T02:18:48.994Z,69.68
2022-11-25T02:20:11.381Z,69.94
2022-11-25T02:21:22.776Z,70.29
2022-11-25T02:22:32.683Z,70.77
2022-11-25T02:23:46.988Z,70.68
2022-11-25T02:24:50.770Z,71.09
2022-11-25T02:26:01.346Z,71.07
2022-11-25T02:27:05.648Z,71.27
2022-11-25T02:28:09.759Z,71.04
2022-11-25T02:29:12.409Z,71.05
2022-11-25T02:30:14.407Z,70.58
2022-11-25T02:31:22.273Z,70.14
2022-11-25T02:32:23.851Z,70.28
2022-11-25T02:33:25.555Z,70.27
2022-11-25T02:34:27.090Z,70.06
2022-11-25T02:35:28.545Z,69.88
2022-11-25T02:36:30.457Z,69.77
2022-11-25T02:37:36.959Z,69.91
2022-11-25T02:39:04.731Z,69.56
2022-11-25T02:40:09.086Z,70.02
2022-11-25T02:41:17.696Z,69.77
2022-11-25T02:42:21.953Z,69.34
2022-11-25T02:43:23.683Z,69.65
2022-11-25T02:44:26.653Z,69.25
2022-11-25T02:45:39.865Z,69.37
2022-11-25T02:46:41.391Z,69.17
2022-11-25T02:47:45.945Z,69.32
2022-11-25T02:50:17.013Z,69.33
2022-11-25T02:51:19.911Z,69.58
2022-11-25T02:52:21.560Z,69.76
2022-11-25T02:53:23.149Z,69.70
2022-11-25T02:54:28.224Z,70.02
2022-11-25T02:55:29.725Z,70.40
2022-11-25T02:56:32.342Z,70.02
2022-11-25T02:57:33.831Z,70.42
2022-11-25T02:58:35.393Z,70.50
2022-11-25T02:59:36.931Z,70.49
2022-11-25T03:00:39.455Z,70.78
2022-11-25T03:01:41.027Z,71.18
2022-11-25T03:02:44.485Z,71.44
2022-11-25T03:03:46.070Z,71.39
2022-11-25T03:04:49.374Z,70.98
2022-11-25T03:06:01.410Z,71.62
2022-11-25T03:07:03.371Z,71.46
2022-11-25T03:08:04.897Z,71.49
2022-11-25T03:09:11.570Z,71.41
2022-11-25T03:10:20.546Z,70.97
2022-11-25T03:11:42.009Z,71.52
2022-11-25T03:12:43.951Z,72.02
2022-11-25T03:13:48.252Z,72.06
2022-11-25T03:14:50.365Z,71.97
2022-11-25T03:15:54.730Z,71.92
2022-11-25T03:16:58.280Z,72.27
2022-11-25T03:18:01.380Z,72.00
2022-11-25T03:19:03.639Z,72.10
2022-11-25T03:20:05.714Z,72.15
2022-11-25T03:22:22.899Z,72.01
2022-11-25T03:23:26.703Z,72.67
2022-11-25T03:24:28.426Z,72.68
2022-11-25T03:25:29.926Z,72.79
2022-11-25T03:26:31.971Z,72.85
2022-11-25T03:27:33.852Z,72.44
2022-11-25T03:28:36.964Z,72.37
2022-11-25T03:29:38.534Z,72.93
2022-11-25T03:30:40.294Z,72.95
2022-11-25T03:31:43.942Z,72.89
2022-11-25T03:32:48.961Z,72.78
2022-11-25T03:33:51.387Z,72.87
2022-11-25T03:34:52.863Z,72.82
2022-11-25T03:35:54.359Z,72.42
2022-11-25T03:36:58.504Z,73.01
2022-11-25T03:38:02.099Z,72.74
2022-11-25T03:39:05.570Z,72.63
2022-11-25T03:40:08.894Z,72.66
2022-11-25T03:41:12.717Z,72.65
2022-11-25T03:42:14.535Z,72.54
2022-11-25T03:43:21.707Z,72.47
2022-11-25T03:44:23.295Z,72.41
2022-11-25T03:45:26.181Z,72.38
2022-11-25T03:46:29.022Z,72.11
2022-11-25T03:47:30.579Z,72.12
2022-11-25T03:48:32.052Z,71.92
2022-11-25T03:49:33.514Z,71.49
2022-11-25T03:50:34.978Z,71.75
2022-11-25T03:51:36.502Z,71.61
2022-11-25T03:52:46.834Z,71.40
2022-11-25T03:53:52.421Z,71.18
2022-11-25T03:54:56.520Z,70.98
2022-11-25T03:56:01.577Z,71.18
2022-11-25T03:57:03.953Z,70.72
2022-11-25T03:58:07.744Z,70.79
2022-11-25T03:59:09.222Z,70.55
2022-11-25T04:00:11.227Z,70.42
2022-11-25T04:02:48.454Z,70.58
2022-11-25T04:03:51.435Z,70.55
2022-11-25T04:04:58.194Z,70.82
2022-11-25T04:05:59.743Z,70.40
2022-11-25T04:07:01.281Z,70.70
2022-11-25T04:08:05.684Z,71.32
2022-11-25T04:09:39.768Z,71.17
2022-11-25T04:10:45.089Z,71.00
2022-11-25T04:12:21.418Z,71.29
2022-11-25T04:13:58.970Z,71.53
2022-11-25T04:15:00.467Z,71.32
2022-11-25T04:16:05.100Z,71.30
2022-11-25T04:17:06.944Z,71.09
2022-11-25T04:18:10.947Z,71.07
2022-11-25T04:19:14.136Z,71.13
2022-11-25T04:20:15.618Z,71.16
2022-11-25T04:21:20.557Z,71.13
2022-11-25T04:22:22.441Z,71.25
2022-11-25T04:23:24.939Z,70.84
2022-11-25T04:24:35.770Z,71.16
2022-11-25T04:25:38.575Z,70.91
2022-11-25T04:26:46.570Z,71.27
2022-11-25T04:27:57.037Z,71.14
2022-11-25T04:29:04.605Z,71.84
2022-11-25T04:30:06.439Z,71.95
2022-11-25T04:31:10.987Z,71.92
2022-11-25T04:33:32.514Z,72.12
2022-11-25T04:34:36.689Z,72.25
2022-11-25T04:35:40.858Z,71.92
2022-11-25T04:36:49.464Z,71.58
2022-11-25T04:39:09.138Z,71.59
2022-11-25T04:41:36.198Z,71.18
2022-11-25T04:42:39.670Z,71.42
2022-11-25T04:43:48.589Z,71.30
2022-11-25T04:45:14.161Z,71.10
2022-11-25T04:46:41.009Z,71.20
2022-11-25T04:47:43.698Z,71.06
2022-11-25T04:48:52.962Z,71.02
2022-11-25T04:49:58.412Z,70.71
2022-11-25T04:51:05.405Z,70.36
2022-11-25T04:52:07.260Z,70.31
2022-11-25T04:53:08.762Z,70.49
2022-11-25T04:54:16.156Z,70.25
2022-11-25T04:55:19.642Z,70.27
2022-11-25T04:56:27.300Z,70.16
2022-11-25T04:57:32.709Z,70.33
2022-11-25T04:58:52.929Z,70.41
2022-11-25T04:59:58.402Z,70.15
2022-11-25T05:01:02.830Z,70.20
2022-11-25T05:02:04.418Z,69.99
2022-11-25T05:03:31.612Z,70.07
2022-11-25T05:04:33.680Z,70.39
2022-11-25T05:05:35.310Z,70.18
2022-11-25T05:06:36.834Z,70.51
2022-11-25T05:07:39.064Z,70.19
2022-11-25T05:09:11.141Z,70.11
2022-11-25T05:10:14.469Z,70.10
2022-11-25T05:11:20.049Z,70.33
2022-11-25T05:12:22.765Z,70.39
2022-11-25T05:13:26.817Z,70.48
2022-11-25T05:14:30.451Z,70.44
2022-11-25T05:15:31.948Z,70.20
2022-11-25T05:16:33.534Z,70.47
2022-11-25T05:17:35.409Z,70.44
2022-11-25T05:18:36.983Z,70.41
2022-11-25T05:19:40.787Z,70.85
2022-11-25T05:20:49.786Z,70.93
2022-11-25T05:21:55.467Z,70.97
2022-11-25T05:22:57.989Z,71.01
2022-11-25T05:23:59.521Z,71.06
2022-11-25T05:25:05.700Z,70.73
2022-11-25T05:26:10.354Z,70.70
2022-11-25T05:27:21.820Z,70.71
2022-11-25T05:28:26.423Z,70.71
2022-11-25T05:29:30.677Z,70.63
2022-11-25T05:30:39.563Z,70.72
2022-11-25T05:31:44.021Z,70.61
2022-11-25T05:32:46.551Z,70.64
2022-11-25T05:33:50.409Z,70.64
2022-11-25T05:34:52.841Z,70.33
2022-11-25T05:35:55.816Z,71.00
2022-11-25T05:37:24.767Z,71.04
2022-11-25T05:38:33.578Z,70.93
2022-11-25T05:39:37.718Z,71.09
2022-11-25T05:41:04.724Z,71.41
2022-11-25T05:42:06.233Z,71.18
2022-11-25T05:43:08.003Z,71.13
2022-11-25T05:44:11.330Z,71.09
2022-11-25T05:45:13.303Z,71.54
2022-11-25T05:46:15.343Z,71.63
2022-11-25T05:47:24.818Z,71.57
2022-11-25T05:48:27.501Z,71.87
2022-11-25T05:49:31.362Z,72.13
2022-11-25T05:50:32.841Z,71.99
2022-11-25T05:51:57.362Z,71.88
2022-11-25T05:53:00.494Z,72.29
2022-11-25T05:54:02.634Z,72.37
2022-11-25T05:55:06.336Z,71.86
2022-11-25T05:56:09.751Z,71.74
2022-11-25T05:57:31.250Z,71.89
2022-11-25T05:58:45.629Z,72.10
2022-11-25T05:59:53.880Z,72.26
2022-11-25T06:01:01.435Z,72.21
2022-11-25T06:02:03.562Z,71.73
2022-11-25T06:03:06.019Z,71.76
2022-11-25T06:04:07.633Z,71.60
2022-11-25T06:05:09.423Z,71.69
2022-11-25T06:06:13.255Z,71.89
2022-11-25T06:07:14.752Z,71.55
2022-11-25T06:08:19.536Z,71.73
2022-11-25T06:09:22.450Z,71.83
2022-11-25T06:10:32.991Z,72.03
2022-11-25T06:11:36.602Z,71.91
2022-11-25T06:12:38.159Z,72.14
2022-11-25T06:13:42.087Z,72.35
2022-11-25T06:14:43.565Z,72.33
2022-11-25T06:15:45.296Z,73.06
2022-11-25T06:16:49.465Z,73.41
2022-11-25T06:18:11.518Z,73.29
2022-11-25T06:19:13.044Z,73.17
2022-11-25T06:20:16.541Z,73.32
2022-11-25T06:21:18.099Z,73.41
2022-11-25T06:22:19.642Z,73.12
2022-11-25T06:23:21.131Z,73.01
2022-11-25T06:24:22.657Z,73.10
2022-11-25T06:25:32.711Z,73.06
2022-11-25T06:26:34.271Z,73.05
2022-11-25T06:28:10.716Z,72.88
2022-11-25T06:29:02.480Z,72.71
2022-11-25T06:30:04.519Z,73.28
2022-11-25T06:31:13.184Z,72.99
2022-11-25T06:32:22.388Z,73.03
2022-11-25T06:33:38.691Z,73.22
2022-11-25T06:34:45.087Z,73.41
2022-11-25T06:36:07.186Z,73.46
2022-11-25T06:37:09.075Z,73.56
2022-11-25T06:38:11.514Z,73.91
2022-11-25T06:39:13.014Z,74.82
2022-11-25T06:40:14.606Z,75.44
2022-11-25T06:41:23.267Z,76.13
2022-11-25T06:42:24.753Z,77.06
2022-11-25T06:43:26.307Z,77.20
2022-11-25T06:44:30.846Z,76.80
2022-11-25T06:45:33.088Z,77.10
2022-11-25T06:46:34.733Z,77.45
2022-11-25T06:47:43.301Z,77.35
2022-11-25T06:48:52.221Z,77.63
2022-11-25T06:49:59.835Z,77.27
2022-11-25T06:51:02.280Z,77.62
2022-11-25T06:52:03.886Z,77.38
2022-11-25T06:53:05.429Z,77.85
2022-11-25T06:54:08.506Z,77.53
2022-11-25T06:55:10.449Z,78.00
2022-11-25T06:56:11.890Z,78.02
2022-11-25T06:57:15.629Z,77.67
2022-11-25T06:58:35.441Z,77.76
2022-11-25T06:59:42.443Z,77.87
2022-11-25T07:00:44.467Z,77.71
2022-11-25T07:01:46.049Z,78.02
2022-11-25T07:02:48.854Z,77.90
2022-11-25T07:03:51.444Z,77.72
2022-11-25T07:04:53.820Z,77.97
2022-11-25T07:05:56.539Z,78.52
2022-11-25T07:07:01.986Z,78.16
2022-11-25T07:08:03.461Z,78.03
2022-11-25T07:09:07.917Z,77.87
2022-11-25T07:10:09.500Z,77.71
2022-11-25T07:12:46.642Z,77.73
2022-11-25T07:13:48.640Z,77.97
2022-11-25T07:14:56.141Z,78.02
2022-11-25T07:16:00.189Z,78.58
2022-11-25T07:17:04.222Z,78.29
2022-11-25T07:18:12.545Z,77.96
2022-11-25T07:19:15.311Z,78.27
2022-11-25T07:20:19.273Z,78.37
2022-11-25T07:21:21.491Z,78.31
2022-11-25T07:22:30.422Z,77.87
2022-11-25T07:23:34.773Z,77.83
2022-11-25T07:24:36.614Z,77.63
2022-11-25T07:25:38.366Z,77.50
2022-11-25T07:27:57.490Z,77.37
2022-11-25T07:29:02.534Z,77.39
2022-11-25T07:31:33.795Z,77.10
2022-11-25T07:32:44.949Z,76.83
2022-11-25T07:33:48.965Z,77.38
2022-11-25T07:34:58.671Z,77.08
2022-11-25T07:36:06.642Z,77.00
2022-11-25T07:37:10.732Z,76.60
2022-11-25T07:38:12.351Z,77.23
2022-11-25T07:39:21.023Z,77.10
2022-11-25T07:40:25.390Z,77.02
2022-11-25T07:41:27.672Z,77.25
2022-11-25T07:42:31.581Z,77.54
2022-11-25T07:43:34.289Z,76.91
2022-11-25T07:44:35.846Z,76.99
2022-11-25T07:46:26.317Z,77.97
2022-11-25T07:47:35.743Z,77.51
2022-11-25T07:48:37.291Z,78.59
2022-11-25T07:49:41.810Z,78.47
2022-11-25T07:50:43.526Z,78.74
2022-11-25T07:51:48.741Z,79.21
2022-11-25T07:52:57.667Z,78.60
2022-11-25T07:54:01.801Z,79.36
2022-11-25T07:55:05.918Z,78.65
2022-11-25T07:56:07.730Z,78.94
2022-11-25T07:57:40.344Z,79.15
2022-11-25T07:58:45.872Z,78.89
2022-11-25T07:59:50.606Z,79.31
2022-11-25T08:00:52.162Z,78.77
2022-11-25T08:01:56.573Z,79.49
2022-11-25T08:02:58.158Z,79.65
2022-11-25T08:04:02.364Z,80.22
2022-11-25T08:05:03.862Z,79.62
2022-11-25T08:06:12.604Z,79.60
2022-11-25T08:07:16.131Z,79.59
2022-11-25T08:08:17.696Z,79.77
2022-11-25T08:09:28.567Z,79.37
2022-11-25T08:10:30.026Z,80.38
2022-11-25T08:11:35.663Z,79.96
2022-11-25T08:13:53.641Z,79.22
2022-11-25T08:14:58.752Z,79.92
2022-11-25T08:16:00.944Z,79.98
2022-11-25T08:17:14.636Z,79.71
2022-11-25T08:18:16.347Z,79.99
2022-11-25T08:19:28.456Z,79.78
2022-11-25T08:21:56.308Z,79.99
2022-11-25T08:22:58.532Z,79.91
2022-11-25T08:24:02.373Z,80.24
2022-11-25T08:25:03.883Z,79.82
2022-11-25T08:26:09.077Z,79.72
2022-11-25T08:27:29.423Z,79.78
2022-11-25T08:28:30.939Z,80.25
2022-11-25T08:29:32.493Z,79.94
2022-11-25T08:30:33.946Z,79.88
2022-11-25T08:31:44.776Z,80.45
2022-11-25T08:32:46.309Z,80.82
2022-11-25T08:33:47.919Z,80.85
2022-11-25T08:34:56.730Z,80.73
2022-11-25T08:36:00.934Z,80.91
2022-11-25T08:37:02.566Z,80.85
2022-11-25T08:38:05.568Z,80.84
2022-11-25T08:39:28.852Z,81.12
2022-11-25T08:40:32.022Z,80.13
2022-11-25T08:41:34.271Z,80.09
2022-11-25T08:42:41.675Z,80.19
2022-11-25T08:43:43.215Z,80.02
2022-11-25T08:44:55.424Z,79.57
2022-11-25T08:45:58.616Z,80.17
2022-11-25T08:47:00.849Z,79.70
2022-11-25T08:48:02.607Z,80.11
2022-11-25T08:49:04.411Z,80.44
2022-11-25T08:50:07.417Z,80.37
2022-11-25T08:51:41.067Z,80.75
2022-11-25T08:52:43.579Z,80.20
2022-11-25T08:53:52.355Z,80.11
2022-11-25T08:54:53.834Z,80.65
2022-11-25T08:55:55.339Z,80.81
2022-11-25T08:56:56.766Z,80.13
2022-11-25T08:58:01.358Z,80.07
2022-11-25T08:59:03.223Z,79.65
2022-11-25T09:00:05.549Z,79.76
2022-11-25T09:01:07.139Z,79.41
2022-11-25T09:02:17.970Z,80.04
2022-11-25T09:03:19.623Z,79.96
2022-11-25T09:04:30.313Z,79.42
2022-11-25T09:05:35.950Z,80.30
2022-11-25T09:06:46.603Z,80.39
2022-11-25T09:07:50.770Z,79.80
2022-11-25T09:08:56.507Z,80.21
2022-11-25T09:09:58.557Z,80.01
2022-11-25T09:11:00.768Z,79.76
2022-11-25T09:12:02.375Z,79.41
2022-11-25T09:13:03.906Z,79.32
2022-11-25T09:14:05.438Z,79.05
2022-11-25T09:15:08.941Z,79.32
2022-11-25T09:16:10.654Z,79.50
2022-11-25T09:17:12.653Z,79.84
2022-11-25T09:18:21.196Z,79.56
2022-11-25T09:19:22.830Z,79.44
2022-11-25T09:20:26.859Z,78.95
2022-11-25T09:21:35.845Z,79.07
2022-11-25T09:22:37.351Z,79.05
2022-11-25T09:24:54.629Z,79.59
2022-11-25T09:25:57.711Z,79.91
2022-11-25T09:27:02.062Z,79.40
2022-11-25T09:28:03.631Z,78.84
2022-11-25T09:29:05.109Z,79.02
2022-11-25T09:30:08.078Z,79.07
2022-11-25T09:31:09.717Z,78.86
2022-11-25T09:32:14.324Z,78.79
2022-11-25T09:33:19.796Z,78.67
2022-11-25T09:34:21.337Z,78.56
2022-11-25T09:35:23.020Z,78.50
2022-11-25T09:36:36.202Z,78.69
2022-11-25T09:37:37.754Z,78.38
2022-11-25T09:38:43.084Z,78.21
2022-11-25T09:39:47.938Z,78.02
2022-11-25T09:40:54.173Z,78.18
2022-11-25T09:42:30.490Z,79.14
2022-11-25T09:43:58.317Z,78.46
2022-11-25T09:45:26.503Z,77.47
2022-11-25T09:46:42.785Z,75.48
2022-11-25T09:48:17.996Z,75.75
2022-11-25T09:49:41.010Z,75.37
2022-11-25T09:50:55.418Z,74.82
2022-11-25T09:52:15.826Z,74.64
2022-11-25T09:53:23.359Z,74.40
2022-11-25T09:54:27.167Z,73.08
2022-11-25T09:55:29.901Z,71.91
2022-11-25T09:56:51.485Z,70.93
2022-11-25T09:58:03.142Z,70.73
2022-11-25T09:59:04.601Z,70.37
2022-11-25T10:00:07.112Z,70.72
2022-11-25T10:01:24.161Z,70.91
2022-11-25T10:02:28.434Z,71.45
2022-11-25T10:03:48.525Z,71.16
2022-11-25T10:05:18.090Z,71.59
2022-11-25T10:06:29.615Z,72.11
2022-11-25T10:07:34.827Z,72.06
2022-11-25T10:08:40.273Z,71.65
2022-11-25T10:09:41.853Z,72.01
2022-11-25T10:10:44.702Z,72.43
2022-11-25T10:11:46.143Z,72.57
2022-11-25T10:12:47.614Z,72.55
2022-11-25T10:13:54.949Z,72.66
2022-11-25T10:15:00.132Z,72.74
2022-11-25T10:16:04.671Z,72.67
2022-11-25T10:17:09.547Z,72.35
2022-11-25T10:18:31.723Z,72.38
2022-11-25T10:19:45.130Z,72.33
2022-11-25T10:20:48.954Z,72.34
2022-11-25T10:21:50.436Z,72.37
2022-11-25T10:23:10.651Z,72.41
2022-11-25T10:24:18.105Z,72.41
2022-11-25T10:25:44.525Z,72.34
2022-11-25T10:26:45.836Z,72.23
2022-11-25T10:27:53.415Z,72.32
2022-11-25T10:29:23.840Z,72.56
2022-11-25T10:30:46.749Z,72.60
2022-11-25T10:31:48.307Z,72.94
2022-11-25T10:33:09.459Z,72.75
2022-11-25T10:34:23.382Z,73.26
2022-11-25T10:35:54.162Z,73.33
2022-11-25T10:36:58.359Z,73.01
2022-11-25T10:38:00.435Z,73.31
2022-11-25T10:39:03.381Z,73.34
2022-11-25T10:40:05.254Z,73.22
2022-11-25T10:41:06.720Z,73.16
2022-11-25T10:42:14.215Z,73.27
2022-11-25T10:43:20.893Z,73.58
2022-11-25T10:44:35.834Z,73.71
2022-11-25T10:45:47.981Z,73.60
2022-11-25T10:47:18.811Z,73.72
2022-11-25T10:48:44.014Z,73.66
2022-11-25T10:49:52.421Z,73.76
2022-11-25T10:50:53.898Z,73.71
2022-11-25T10:51:57.403Z,73.55
2022-11-25T10:53:01.382Z,73.69
2022-11-25T10:54:09.673Z,74.19
2022-11-25T10:55:11.574Z,74.28
2022-11-25T10:56:17.632Z,74.52
2022-11-25T10:57:19.954Z,74.25
2022-11-25T10:58:29.990Z,74.24
2022-11-25T10:59:40.829Z,74.53
2022-11-25T11:00:42.579Z,74.71
2022-11-25T11:01:46.976Z,74.63
2022-11-25T11:02:48.723Z,74.76
2022-11-25T11:04:19.109Z,74.65
2022-11-25T11:05:30.304Z,75.21
2022-11-25T11:06:32.082Z,75.08
2022-11-25T11:07:34.505Z,75.25
2022-11-25T11:08:39.241Z,75.21
2022-11-25T11:09:48.759Z,75.43
2022-11-25T11:11:08.394Z,75.03
2022-11-25T11:12:23.269Z,74.87
2022-11-25T11:13:25.918Z,74.99
2022-11-25T11:14:32.256Z,74.84
2022-11-25T11:15:54.168Z,75.15
2022-11-25T11:16:56.135Z,75.07
2022-11-25T11:17:59.871Z,75.07
2022-11-25T11:19:01.457Z,75.43
2022-11-25T11:20:02.956Z,75.53
2022-11-25T11:21:05.420Z,75.37
2022-11-25T11:22:16.287Z,75.49
2022-11-25T11:23:18.630Z,75.46
2022-11-25T11:24:34.990Z,75.68
2022-11-25T11:25:39.228Z,75.67
2022-11-25T11:26:40.870Z,75.61
2022-11-25T11:27:42.319Z,75.80
2022-11-25T11:28:43.797Z,75.91
2022-11-25T11:29:45.294Z,75.74
2022-11-25T11:30:53.504Z,75.86
2022-11-25T11:31:59.054Z,75.75
2022-11-25T11:33:04.601Z,75.99
2022-11-25T11:34:26.592Z,75.76
2022-11-25T11:35:30.859Z,75.34
2022-11-25T11:36:38.248Z,74.99
2022-11-25T11:37:55.355Z,75.09
2022-11-25T11:39:01.335Z,75.17
2022-11-25T11:40:05.591Z,74.94
2022-11-25T11:41:25.721Z,74.80
2022-11-25T11:42:33.331Z,74.80
2022-11-25T11:44:00.218Z,74.73
2022-11-25T11:45:04.774Z,74.34
2022-11-25T11:46:18.442Z,74.13
2022-11-25T11:47:36.391Z,74.02
2022-11-25T11:48:55.103Z,74.09
2022-11-25T11:50:00.747Z,73.96
2022-11-25T11:51:02.220Z,74.13
2022-11-25T11:52:10.510Z,73.92
2022-11-25T11:53:30.971Z,74.07
2022-11-25T11:54:51.250Z,73.96
2022-11-25T11:56:34.127Z,73.70
2022-11-25T11:57:34.704Z,73.83
2022-11-25T11:58:55.272Z,73.96
2022-11-25T11:59:56.983Z,73.89
2022-11-25T12:00:58.499Z,73.74
2022-11-25T12:02:16.710Z,73.52
2022-11-25T12:03:19.354Z,73.19
2022-11-25T12:04:22.641Z,73.53
2022-11-25T12:05:33.911Z,73.76
2022-11-25T12:06:35.395Z,73.62
2022-11-25T12:07:54.926Z,73.70
2022-11-25T12:09:16.677Z,73.94
2022-11-25T12:10:25.649Z,73.99
2022-11-25T12:11:35.084Z,73.84
2022-11-25T12:12:38.683Z,74.41
2022-11-25T12:13:45.761Z,74.26
2022-11-25T12:14:52.358Z,74.22
2022-11-25T12:16:15.476Z,74.18
2022-11-25T12:17:27.445Z,74.17
2022-11-25T12:18:47.605Z,73.91
2022-11-25T12:19:55.134Z,73.72
2022-11-25T12:21:01.326Z,73.96
2022-11-25T12:22:11.522Z,73.96
2022-11-25T12:23:15.540Z,73.71
2022-11-25T12:24:19.844Z,72.81
2022-11-25T12:25:24.614Z,73.33
2022-11-25T12:26:30.046Z,72.65
2022-11-25T12:27:47.577Z,72.90
2022-11-25T12:28:51.858Z,72.40
2022-11-25T12:30:06.884Z,71.73
2022-11-25T12:31:40.831Z,71.82
2022-11-25T12:33:03.152Z,72.49
2022-11-25T12:34:09.538Z,72.61
2022-11-25T12:35:32.652Z,71.73
2022-11-25T12:36:34.937Z,72.02
2022-11-25T12:37:38.200Z,72.10
2022-11-25T12:39:03.951Z,71.93
2022-11-25T12:40:18.948Z,71.95
2022-11-25T12:41:49.532Z,71.55
2022-11-25T12:44:14.658Z,71.72
2022-11-25T12:45:17.690Z,71.27
2022-11-25T12:46:21.297Z,71.45
2022-11-25T12:47:22.873Z,71.40
2022-11-25T12:48:24.560Z,71.17
2022-11-25T12:49:42.407Z,71.35
2022-11-25T12:51:01.127Z,71.10
2022-11-25T12:52:02.785Z,71.14
2022-11-25T12:53:27.717Z,70.69
2022-11-25T12:54:29.180Z,70.50
2022-11-25T12:55:30.658Z,70.47
2022-11-25T12:56:59.873Z,70.53
2022-11-25T12:58:22.776Z,69.70
2022-11-25T12:59:36.430Z,69.88
2022-11-25T13:00:42.817Z,69.71
2022-11-25T13:01:51.771Z,70.21
2022-11-25T13:02:56.405Z,69.46
2022-11-25T13:04:16.834Z,69.44
2022-11-25T13:05:41.159Z,69.32
2022-11-25T13:06:56.534Z,69.03
2022-11-25T13:08:02.918Z,69.26
2022-11-25T13:09:22.898Z,69.93
2022-11-25T13:10:44.491Z,70.04
2022-11-25T13:11:52.222Z,69.14
2022-11-25T13:13:17.659Z,68.73
2022-11-25T13:14:39.427Z,69.27
2022-11-25T13:15:45.646Z,68.81
2022-11-25T13:16:48.110Z,69.25
2022-11-25T13:17:50.101Z,69.24
2022-11-25T13:18:52.262Z,69.22
2022-11-25T13:20:13.196Z,69.10
2022-11-25T13:21:14.973Z,68.94
2022-11-25T13:22:23.558Z,68.72
2022-11-25T13:23:26.072Z,68.96
2022-11-25T13:24:34.021Z,68.92
2022-11-25T13:25:36.410Z,68.54
2022-11-25T13:27:00.493Z,68.72
2022-11-25T13:28:03.625Z,68.16
2022-11-25T13:29:21.794Z,68.57
2022-11-25T13:30:32.620Z,68.52
2022-11-25T13:31:57.477Z,68.74
2022-11-25T13:33:12.478Z,68.77
2022-11-25T13:34:20.717Z,68.73
2022-11-25T13:35:24.680Z,68.84
2022-11-25T13:36:26.591Z,68.71
2022-11-25T13:37:36.797Z,69.02
2022-11-25T13:38:58.236Z,68.97
2022-11-25T13:40:24.297Z,68.85
2022-11-25T13:41:40.948Z,68.78
2022-11-25T13:42:48.810Z,68.85
2022-11-25T13:44:01.675Z,68.88
2022-11-25T13:45:03.811Z,68.84
2022-11-25T13:46:05.429Z,68.87
2022-11-25T13:47:25.570Z,69.03
2022-11-25T13:48:28.199Z,68.95
2022-11-25T13:49:29.767Z,69.08
2022-11-25T13:50:48.352Z,69.33
2022-11-25T13:52:01.009Z,69.21
2022-11-25T13:53:05.805Z,69.17
2022-11-25T13:54:07.294Z,69.14
2022-11-25T13:55:37.874Z,68.91
2022-11-25T13:56:39.322Z,68.45
2022-11-25T13:57:40.954Z,68.53
2022-11-25T13:59:02.366Z,68.43
2022-11-25T14:00:06.956Z,68.78
2022-11-25T14:01:27.996Z,68.84
2022-11-25T14:02:32.456Z,68.71
2022-11-25T14:04:00.995Z,68.48
2022-11-25T14:05:05.143Z,68.56
2022-11-25T14:06:24.874Z,68.75
2022-11-25T14:07:45.138Z,68.65
2022-11-25T14:09:02.082Z,68.41
2022-11-25T14:10:09.868Z,68.52
2022-11-25T14:11:55.264Z,68.90
2022-11-25T14:12:59.511Z,68.65
2022-11-25T14:14:01.678Z,68.66
2022-11-25T14:15:22.659Z,68.52
2022-11-25T14:16:24.203Z,68.99
2022-11-25T14:17:39.639Z,68.93
2022-11-25T14:20:05.320Z,68.26
2022-11-25T14:21:08.962Z,68.83
2022-11-25T14:22:21.745Z,67.82
2022-11-25T14:23:34.455Z,68.10
2022-11-25T14:24:41.638Z,68.39
2022-11-25T14:25:50.486Z,67.00
2022-11-25T14:26:52.234Z,66.82
2022-11-25T14:28:03.523Z,67.57
2022-11-25T14:29:22.049Z,66.33
2022-11-25T14:30:36.522Z,66.63
2022-11-25T14:31:51.038Z,66.48
2022-11-25T14:33:05.386Z,65.75
2022-11-25T14:34:10.918Z,65.96
2022-11-25T14:35:30.728Z,66.03
2022-11-25T14:36:37.464Z,65.44
2022-11-25T14:37:45.485Z,65.72
2022-11-25T14:38:48.397Z,65.87
2022-11-25T14:39:54.149Z,66.02
2022-11-25T14:40:55.643Z,66.05
2022-11-25T14:42:07.047Z,65.42
2022-11-25T14:43:12.226Z,65.38
2022-11-25T14:44:24.219Z,65.39
2022-11-25T14:45:27.110Z,65.36
2022-11-25T14:49:00.572Z,65.08
2022-11-25T14:51:35.561Z,65.14